Timeline UpdatesTrip UpdatesNews PostsPvt Posts♥♥Travel TipsAdmin PostsConv PostsFollowed PostsChat RequestsBlog PostsPNR Posts

Disclaimer
Search
 
 
Mon Oct 20, 2014 09:59:15 ISTHomeTrainsΣChainsAtlasPNRForumGalleryNewsFAQTripsMembersLoginFeedback
No Recent News for this Train
Other Trains in the News **new
Latest...
.
Mon Nov 18, 2013 (08:48PM)
⇐ Return Journey: Train# 14649

14650/Saryu Yamuna Express

Time-Table HAS CHANGED.
Sep 03 2014 (11:28AM)
Change Departure Station:
Change Arrival Station:
Post a Train Travel TipPost a Train Travel Tip **new
Post a Comment/Question/Picture/VideoPost a Comment/Question/Picture/Video
Pantry/Catering
✕ NO Pantry Car
✕ NO Catering
Loco/Rake Reversals
SPJ/Samastipur Junction (9); SHG/Shahganj Junction (4);
RSA - Rake Sharing
14673/74 Shaheed Express.
Rake/Coach Composition
LOCO,SLR,UR,S1,UR,UR,UR,B1,AB1,S2,S3,S4,S5,S6,UR,UR,UR,UR,UR,S7,SLR
Loco
AMRITSAR-DELHI: WAP-7 of GHAZIABAD SHED. DELHI-JAYNAGAR: WDM-3A/3D of TUGHLAKABAD/SAMASTIPUR SHED
News    PNR    Forum    Time-Table    Availability    Fare Chart    Map    Arr/Dep History    Trips    Gallery    ΣChains    X/O    Timeline    
Travel Time: 22h 5m    24 halts    Distance: 1066 km    Avg Speed: 48 km/hr
Type: Mail/Express
Zone: NR/Northern
Departs @ 21:15 (Avg 14m late)
Platform# 5
 M W  S
Old Delhi Junction/DLI 
Arrives @ 19:20 +1 night (Avg 3h 32m late)
Platform# ???
S T T  
Muzaffarpur Junction/MFP 

24 halts. 170 intermediate Stations between Old Delhi Junction and Muzaffarpur Junction

Show ALL intermediate Stations  Show Old Time-Table

#TrkCodeStation NameX/OArrivesAvgDepartsAvgHaltPFDay#KmSpeedElevZoneAddress
1/==/ASRAmritsar Junction (5)  -11:55+1521-447.692233mNRAmritsar 143002, Punjab
2/==/BEASBeas Junction (2)  12:23+2812:25+272m21-404.661238mNRBeas, Punjab
3/==/KREKartarpur (2)  12:46+2712:48+272m11-383.252236mNRKartarpur, Punjab
4/==/JUCJalandhar City Junction (5)  13:05+2313:10+245m21-368.526239mNRJalandhar 144001, Punjab
5/==/JRCJalandhar Cantt. Junction (3)X  13:21+2313:23+222m21-363.765239mNRNear Rama Mandi, Punjab
6/==/PGWPhagwara Junction (3)X  13:38+2213:40+222m11-347.475245mNRPhagwara, Punjab
7/==/PHRPhillaur Junction (3)X  13:58+2614:00+252m11-324.852246mNRPhillaur, Punjab
8/==/LDHLudhiana Junction (7)X  14:15+2514:25+2410m11-311.737246mNRLudhiana 141001, Punjab
9/==/DOADoraha (2)  15:00 15:01+2215:02+232 1m21-289.276261mNRDoraha, Punjab
10/==/KNNKhanna (3)  15:17 15:18+2415:19+252 1m21-268.961269mNRNH 1, Punjab
11/==/GVGMandi Gobindgarh (2)  15:27+2515:29+252m11-260.853268mNRMandi Gobindgarh, Punjab
12/==/SIRSirhind Junction (3)X  15:40+2415:42+232m21-251.083271mNRSirhind, Punjab
13/==/RPJRajpura Junction (3)X  15:59 16:00+2616:01+282 1m21-226.259272mNRNH-1, Punjab
14/==/UBCAmbala City (3)XO  16:22+2716:24+272m11-205.713273mNRNH-1, Haryana
15/==/UMBAmbala Cantt. Junction (7)X  17:00+717:10+910m21-198.181278mNRAmbala 133001, Haryana
16/==/KKDEKurukshetra Junction (3)X  17:47 17:41+2217:49 17:43+222m21-156.060260mNRKurukshetra, Haryana
17/==/KUNKarnal (3)X  18:16+2118:18+212m--1-122.967253mNRKarnal, Haryana
18/==/PNPPanipat Junction (5)  18:49+1418:51+152m21-88.580235mNRPanipat, Haryana
19/==/SNPSonipat (3)  19:25+2019:27+202m--1-43.353225mNRSonipat, Haryana
20/==/SZMDelhi Sabzi Mandi (2)  20:13+2020:15+242m--1-3.06220mNRGulabi Bagh, Delhi NCT
21/==/DLIOld Delhi Junction (16)»X20:45+1321:15+1430m510.024219mNRNear Chandni Chowk Metro Station, Delhi NCT
22/==/GZBGhaziabad Junction (6)  22:05+722:07+92m1120.167217mNRGhaziabad, Uttar Pradesh
23%==%HPUHapur Junction (4)  22:45 22:40+3122:48 22:45+303 5m2156.870214mNRHapur Jn., Uttar Pradesh
24%==%AMROAmroha (3)X  23:48+2623:50+262m11130.246217mNRAmroha, Uttar Pradesh
25%==%MBMoradabad Junction (7)X  00:35 00:30+2100:45 00:40+3010m32160.847201mNRMoradabad, Uttar Pradesh
26/==/RMURampur Junction (3)X  01:15+2901:17 01:20+282 5m22188.069190mNRRampur, Uttar Pradesh
27/==/BEBareilly Junction (4)XO  02:15+2302:20+265m12251.165174mNRBareilly, Uttar Pradesh
28/==/SPNShahjahanpur Junction (3)X  03:25+2203:30+255m--2321.662156mNRShahjahanpur, Uttar Pradesh
29/==/LKOLucknow Charbagh NR (9)X  06:10+2506:20+3210m42486.537123mNR226004, Uttar Pradesh
30/==/BBKBarabanki Junction (4)  07:06+3307:08+342m--2515.068122mNRPin-225001, Uttar Pradesh
31|--|FDFaizabad Junction (5)  08:35+4808:40+585m--2614.325104mNRFaizabad, Uttar Pradesh
32|--|AYAyodhya Junction (3)O  08:55 08:56+5908:57+592 1m22621.07098mNRAyodhya, Uttar Pradesh
33|--|ABPAkbarpur Junction (2)  09:43+1:0309:45+1:032m--2674.93892mNRAkbarpur, Uttar Pradesh
34|--|SHGShahganj Junction (4)10:55+4511:20+4625m--2719.03790mNRShahganj, Uttar Pradesh
35|--|KRNDKhorason Road (2)  11:54+5011:56+532m--2740.25085mNERUttar Pradesh 276304 ?, Uttar Pradesh
36|--|AMHAzamgarh (2)X  12:38+5712:43+1:005m--2774.97281mNERAzamgarh, Uttar Pradesh
37|--|MMAMuhammadabad (2)  13:01+1:0713:03+1:082m--2796.54880mNERMuhammadabad Marg, Uttar Pradesh
38|--|MAUMau Junction (4)  13:30+1:0713:35 13:40+1:065 10m42818.23975mNERMau., Uttar Pradesh
39|-=|IAAIndara Junction (3)  13:58 13:52+1:0714:00 13:54+1:082m--2826.06574mNERMau, Uttar Pradesh
40|--|RSRRasra (2)  14:24 14:20+1:1614:26 14:22+1:172m--2854.35270mNERRasra, Uttar Pradesh
41|--|BUIBallia (3)  15:05 15:00+1:2215:10 15:05+1:245m22887.05562mNERBallia, Uttar Pradesh
42|--|SIPSuraimanpur  15:50 15:45+1:4315:52 15:47+1:472m--2923.43360mNERBallia, Uttar Pradesh
43|--|CPRChhapra Junction (6)X  16:40+1:4917:00+2:0420m--2952.66458mNERDistt: Saran, Bihar
44/==/SEESonpur Junction (4)X  17:54 17:51+2:5217:59 17:56+2:545m--21006.73356mECRSaran, Bihar
45/=-/HJPHajipur Junction (3)  18:12 18:06+2:5818:14 18:11+3:082 5m--21012.24755mECR06224-272230, Bihar
46%==%MFPMuzaffarpur Junction (6)•  19:25 19:20+3:3219:35 19:25+3:3710 5m--21066.03157mECRMuzaffarpur, Bihar
47/==/SPJSamastipur Junction (9)XO21:05+3:1421:35+3:1230m--21118.15355mECRSamastipur, Bihar
48|--|HYTHaiaghatXO  21:58 22:00+3:3122:00 22:02+3:312m--21140.21951mECRDarbhanga, Bihar
49|--|LSILaheria Sarai (1)X  22:25 22:35+3:1822:30 22:40+3:225m121150.63052mECRDarbhanga, Bihar
50|--|DBGDarbhanga Junction (5)X  22:40 22:50+3:2422:50 23:00+3:3110m421155.64854mECRDarbhanga, Bihar
51|--|KKHTKakarghatti  23:04 23:08+3:3323:06 23:10+3:352m--21161.96654mECRDarbhanga, Bihar
52|--|TRSTarsarai  23:15 23:16+3:3823:17 23:18+3:372m--21168.53354mECRDarbhanga, Bihar
53|--|SKISakri Junction (5)  23:30+3:3623:35+3:365m121175.23955mECRMadhubani, Bihar
54|--|PDWPandaul  23:47+3:3723:49+3:372m--21183.02459mECRMadhubani, Bihar
55|--|MBIMadhubani (3)X  00:16 00:12+3:2500:18+3:242 6m131192.04662mECRMadhubani, Bihar
56|--|RJARajanagar  00:31+3:2300:33+3:232m--31201.93765mECRRajnagar Distt: Madhubani, Bihar
57|--|KJIKhajauli  00:48+3:2100:50+3:212m--31211.21870mECRMadhubani, Bihar
58|--|JYGJaynagar (3)  01:30+3:02-131223.3-68mECRDistt: Madhubani, Bihar
Scroll to Top
Scroll to Bottom